Time;durP1;ratioP1;P1;durP2;ratioP2;P2;SDS_P1;SDS_P2;PMS_P1;PMS_P2;Temp;Humidity;BMP_temperature;BMP_pressure;BME280_temperature;BME280_humidity;BME280_pressure;Samples;Min_cycle;Max_cycle;Signal;HPM_P1;HPM_P2
2023/01/30 00:01:37;;;;;;;48.93;23.47;;;;;;;-145.18;100.00;46683.84;6242971;23;20009;-70
2023/01/30 00:04:03;;;;;;;42.00;22.03;;;;;;;-145.18;100.00;46691.66;6242616;23;20028;-70
2023/01/30 00:06:28;;;;;;;45.13;24.13;;;;;;;-145.18;100.00;46683.84;6242983;23;20438;-70
2023/01/30 00:08:54;;;;;;;45.53;24.30;;;;;;;-145.18;100.00;46683.84;6242813;23;20394;-70
2023/01/30 00:11:20;;;;;;;39.67;23.33;;;;;;;-145.18;100.00;46683.84;6242742;23;20004;-72
2023/01/30 00:13:48;;;;;;;42.87;22.57;;;;;;;-145.18;100.00;46687.75;6242898;23;20035;-72
2023/01/30 00:16:13;;;;;;;41.73;22.83;;;;;;;-145.18;100.00;46689.69;6243114;23;20590;-72
2023/01/30 00:18:40;;;;;;;37.93;21.00;;;;;;;-145.18;100.00;46695.56;6242996;23;20244;-72
2023/01/30 00:21:09;;;;;;;35.63;22.40;;;;;;;-145.18;100.00;46685.78;6242828;23;20007;-72
2023/01/30 00:23:36;;;;;;;38.77;23.87;;;;;;;-145.18;100.00;46691.66;6242741;23;20253;-72
2023/01/30 00:26:03;;;;;;;42.77;23.23;;;;;;;-145.18;100.00;46687.75;6242305;23;20256;-71
2023/01/30 00:28:28;;;;;;;44.43;22.03;;;;;;;-145.18;100.00;46689.69;6243097;23;20312;-70
2023/01/30 00:30:55;;;;;;;40.10;23.37;;;;;;;-145.18;100.00;46681.88;6242557;23;20300;-71
2023/01/30 00:33:22;;;;;;;41.83;20.50;;;;;;;-145.18;100.00;46681.88;6242768;23;20004;-70
2023/01/30 00:35:49;;;;;;;37.57;21.87;;;;;;;-145.18;100.00;46683.84;6242506;23;20911;-71
2023/01/30 00:38:15;;;;;;;35.10;21.23;;;;;;;-145.18;100.00;46681.88;6242948;23;20655;-72
2023/01/30 00:40:41;;;;;;;38.87;22.60;;;;;;;-145.18;100.00;46685.78;6242696;23;20291;-72
2023/01/30 00:48:38;;;;;;;44.03;21.47;;;;;;;-145.18;100.00;46687.75;6242635;23;20240;-72
2023/01/30 00:51:03;;;;;;;39.73;20.13;;;;;;;-145.18;100.00;46691.66;6242732;23;20611;-73
2023/01/30 00:53:29;;;;;;;39.47;20.63;;;;;;;-145.18;100.00;46683.84;6243240;23;20015;-72
2023/01/30 00:55:55;;;;;;;31.17;16.23;;;;;;;-145.18;100.00;46681.88;6242074;23;20008;-72
2023/01/30 00:58:22;;;;;;;36.17;18.40;;;;;;;-145.18;100.00;46689.69;6242390;23;20126;-72
2023/01/30 01:00:48;;;;;;;32.40;18.70;;;;;;;-145.18;100.00;46687.75;6242019;23;20238;-72
2023/01/30 01:03:13;;;;;;;37.47;19.27;;;;;;;-145.18;100.00;46687.75;6242268;23;20907;-72
2023/01/30 01:05:38;;;;;;;31.93;16.87;;;;;;;-145.18;100.00;46685.78;6242334;23;20241;-72
2023/01/30 01:08:04;;;;;;;30.50;15.17;;;;;;;-145.18;100.00;46685.78;6242215;23;20050;-72
2023/01/30 01:10:31;;;;;;;30.83;17.03;;;;;;;-145.18;100.00;46685.78;6242594;23;20004;-73
2023/01/30 01:12:57;;;;;;;32.40;16.30;;;;;;;-145.18;100.00;46683.84;6242161;23;20281;-73
2023/01/30 01:15:24;;;;;;;32.43;13.53;;;;;;;-145.18;100.00;46687.75;6242601;23;20222;-72
2023/01/30 01:17:50;;;;;;;28.60;15.40;;;;;;;-145.18;100.00;46687.75;6241895;23;20392;-72
2023/01/30 01:20:17;;;;;;;32.03;14.63;;;;;;;-145.18;100.00;46685.78;6242419;23;20221;-73
2023/01/30 01:22:42;;;;;;;31.40;14.83;;;;;;;-145.18;100.00;46683.84;6241458;23;20004;-73
2023/01/30 01:25:09;;;;;;;32.67;12.97;;;;;;;-145.18;100.00;46693.59;6242441;23;20709;-72
2023/01/30 01:27:35;;;;;;;29.17;11.23;;;;;;;-145.18;100.00;46693.59;6242301;23;20390;-73
2023/01/30 01:30:00;;;;;;;17.60;12.03;;;;;;;-145.18;100.00;46691.66;6242030;23;20230;-73
2023/01/30 01:32:26;;;;;;;31.40;10.67;;;;;;;-145.18;100.00;46681.88;6241972;23;20229;-72
2023/01/30 01:34:51;;;;;;;25.67;9.07;;;;;;;-145.18;100.00;46695.56;6241979;23;20012;-72
2023/01/30 01:37:16;;;;;;;14.80;7.40;;;;;;;-145.18;100.00;46697.50;6242061;23;20062;-72
2023/01/30 01:42:32;;;;;;;18.30;8.00;;;;;;;-145.18;100.00;46691.66;6241827;23;20023;-72
2023/01/30 01:45:12;;;;;;;21.77;7.63;;;;;;;-145.18;100.00;46695.56;6241649;23;20252;-73
2023/01/30 01:47:56;;;;;;;18.40;7.67;;;;;;;-145.18;100.00;46695.56;6241844;23;20780;-73
2023/01/30 01:50:27;;;;;;;20.33;7.17;;;;;;;-145.18;100.00;46697.50;6242577;23;20292;-73
2023/01/30 01:52:57;;;;;;;15.03;7.57;;;;;;;-145.18;100.00;46695.56;6241990;23;20427;-72
2023/01/30 01:55:24;;;;;;;23.87;7.07;;;;;;;-145.18;100.00;46705.31;6242376;23;20636;-72
2023/01/30 01:58:11;;;;;;;18.53;7.80;;;;;;;-145.18;100.00;46699.47;6241824;23;20283;-72
2023/01/30 02:00:37;;;;;;;27.80;7.17;;;;;;;-145.18;100.00;46693.59;6242105;23;20245;-72
2023/01/30 02:03:12;;;;;;;21.37;7.20;;;;;;;-145.18;100.00;46699.47;6241482;23;20273;-73
2023/01/30 02:05:42;;;;;;;16.70;7.22;;;;;;;-145.18;100.00;46693.59;6242348;23;20053;-73
2023/01/30 02:08:16;;;;;;;19.67;6.43;;;;;;;-145.18;100.00;46705.31;6242039;23;20365;-72
2023/01/30 02:10:53;;;;;;;21.73;6.00;;;;;;;-145.18;100.00;46695.56;6241780;23;20229;-72
2023/01/30 02:13:19;;;;;;;15.53;6.13;;;;;;;-145.18;100.00;46701.41;6241504;23;20547;-72
2023/01/30 02:15:44;;;;;;;20.90;5.77;;;;;;;-145.18;100.00;46695.56;6241697;23;20237;-72
2023/01/30 02:18:11;;;;;;;16.23;6.33;;;;;;;-145.18;100.00;46705.31;6215258;23;20334;-72
2023/01/30 02:21:31;;;;;;;18.47;7.27;;;;;;;-145.18;100.00;46709.22;6241722;23;19999;-73
2023/01/30 02:24:11;;;;;;;14.77;6.03;;;;;;;-145.18;100.00;46701.41;6178572;23;20338;-73
2023/01/30 02:27:03;;;;;;;26.47;6.97;;;;;;;-145.18;100.00;46699.47;6242038;23;20840;-73
2023/01/30 02:29:53;;;;;;;17.97;5.77;;;;;;;-145.18;100.00;46705.31;6242024;23;20226;-73
2023/01/30 02:32:44;;;;;;;21.10;6.50;;;;;;;-145.18;100.00;46689.69;6241726;23;20213;-73
2023/01/30 02:35:36;;;;;;;19.80;5.60;;;;;;;-145.18;100.00;46699.47;6243239;23;20229;-73
2023/01/30 02:38:34;;;;;;;23.13;6.43;;;;;;;-145.18;100.00;46687.75;6243752;23;20229;-73
2023/01/30 02:41:17;;;;;;;24.97;7.47;;;;;;;-145.18;100.00;46697.50;6188778;23;20283;-72
2023/01/30 02:43:43;;;;;;;26.93;7.10;;;;;;;-145.18;100.00;46689.69;6243209;23;20291;-72
2023/01/30 02:46:20;;;;;;;19.03;5.53;;;;;;;-145.18;100.00;46693.59;6244184;23;20226;-73
2023/01/30 02:48:49;;;;;;;24.90;7.73;;;;;;;-145.18;100.00;46691.66;6243794;23;20000;-72
2023/01/30 02:51:27;;;;;;;24.13;7.03;;;;;;;-145.18;100.00;46693.59;6243749;23;20221;-72
2023/01/30 02:53:54;;;;;;;26.50;9.33;;;;;;;-145.18;100.00;46679.94;6243549;23;20233;-73
2023/01/30 02:56:19;;;;;;;19.83;7.47;;;;;;;-145.18;100.00;46679.94;6243702;23;20267;-72
2023/01/30 02:58:49;;;;;;;21.50;7.73;;;;;;;-145.18;100.00;46681.88;6243694;23;20597;-73
2023/01/30 03:04:08;;;;;;;20.50;7.20;;;;;;;-145.18;100.00;46685.78;6268337;22;20272;-72
2023/01/30 03:07:04;;;;;;;17.67;6.40;;;;;;;-145.18;100.00;46683.84;6274873;22;20445;-72
2023/01/30 03:09:50;;;;;;;18.90;7.15;;;;;;;-145.18;100.00;46683.84;6274689;22;20224;-72
2023/01/30 03:12:50;;;;;;;24.88;6.90;;;;;;;-145.18;100.00;46681.88;6274968;22;20460;-72
2023/01/30 03:15:28;;;;;;;20.20;6.73;;;;;;;-145.18;100.00;46683.84;6274764;22;20012;-72
2023/01/30 03:17:54;;;;;;;26.53;6.50;;;;;;;-145.18;100.00;46674.06;6274011;22;20252;-72
2023/01/30 03:20:19;;;;;;;14.93;6.37;;;;;;;-145.18;100.00;46672.13;6274934;22;20228;-72
2023/01/30 03:22:45;;;;;;;16.90;6.30;;;;;;;-145.18;100.00;46679.94;6274158;22;20474;-72
2023/01/30 03:25:16;;;;;;;25.47;8.30;;;;;;;-145.18;100.00;46683.84;6274570;22;20087;-72
2023/01/30 03:27:43;;;;;;;18.43;7.40;;;;;;;-145.18;100.00;46676.03;6274491;22;20004;-73
2023/01/30 03:30:09;;;;;;;28.67;7.93;;;;;;;-145.18;100.00;46676.03;6274784;22;20239;-72
2023/01/30 03:32:34;;;;;;;23.97;7.80;;;;;;;-145.18;100.00;46679.94;6274524;22;20237;-72
2023/01/30 03:35:00;;;;;;;21.57;6.63;;;;;;;-145.18;100.00;46677.97;6247606;22;20236;-72
2023/01/30 03:37:26;;;;;;;19.37;6.97;;;;;;;-145.18;100.00;46676.03;6247231;22;20065;-72
2023/01/30 03:39:52;;;;;;;29.43;7.30;;;;;;;-145.18;100.00;46685.78;6274583;22;20467;-72
2023/01/30 03:42:17;;;;;;;28.50;6.97;;;;;;;-145.18;100.00;46672.13;6274351;22;20233;-72
2023/01/30 03:44:42;;;;;;;26.70;6.90;;;;;;;-145.18;100.00;46676.03;6274139;22;20448;-72
2023/01/30 03:47:08;;;;;;;17.33;5.90;;;;;;;-145.18;100.00;46681.88;6274284;22;20011;-72
2023/01/30 03:49:33;;;;;;;19.13;6.53;;;;;;;-145.18;100.00;46672.13;6274447;22;20022;-72
2023/01/30 03:51:59;;;;;;;17.23;6.53;;;;;;;-145.18;100.00;46677.97;6274010;22;20619;-72
2023/01/30 03:54:24;;;;;;;22.57;7.13;;;;;;;-145.18;100.00;46674.06;6274727;22;20310;-72
2023/01/30 03:56:49;;;;;;;22.90;6.13;;;;;;;-145.18;100.00;46674.06;6273759;22;20008;-72
2023/01/30 03:59:15;;;;;;;24.10;7.17;;;;;;;-145.18;100.00;46674.06;6274543;22;20022;-72
2023/01/30 04:01:40;;;;;;;23.47;6.10;;;;;;;-145.18;100.00;46674.06;6274334;22;20130;-72
2023/01/30 04:04:05;;;;;;;22.63;6.10;;;;;;;-145.18;100.00;46676.03;6273700;22;20452;-72
2023/01/30 04:06:31;;;;;;;23.53;6.43;;;;;;;-145.18;100.00;46674.06;6274367;22;20003;-72
2023/01/30 04:08:56;;;;;;;22.87;5.80;;;;;;;-145.18;100.00;46676.03;6273798;22;20450;-72
2023/01/30 04:11:21;;;;;;;19.00;5.63;;;;;;;-145.18;100.00;46677.97;6274121;22;20012;-72
2023/01/30 04:13:47;;;;;;;22.73;5.93;;;;;;;-145.18;100.00;46681.88;6273786;22;20478;-72
2023/01/30 04:16:18;;;;;;;20.63;5.70;;;;;;;-145.18;100.00;46677.97;6274526;22;20456;-72
2023/01/30 04:18:44;;;;;;;25.43;6.23;;;;;;;-145.18;100.00;46677.97;6273580;22;20029;-72
2023/01/30 04:21:10;;;;;;;26.77;5.37;;;;;;;-145.18;100.00;46676.03;6274546;22;20233;-72
2023/01/30 04:23:35;;;;;;;18.93;6.03;;;;;;;-145.18;100.00;46676.03;6274106;22;20203;-72
2023/01/30 04:26:00;;;;;;;23.17;6.80;;;;;;;-145.18;100.00;46681.88;6274246;22;20000;-72
2023/01/30 04:28:26;;;;;;;20.60;6.13;;;;;;;-145.18;100.00;46676.03;6273925;22;20012;-72
2023/01/30 04:30:52;;;;;;;20.00;5.83;;;;;;;-145.18;100.00;46679.94;6273871;22;20008;-72
2023/01/30 04:33:17;;;;;;;25.60;7.03;;;;;;;-145.18;100.00;46674.06;6273663;22;20352;-72
2023/01/30 04:35:58;;;;;;;20.73;5.23;;;;;;;-145.18;100.00;46674.06;6273826;22;20240;-72
2023/01/30 04:38:24;;;;;;;32.87;5.80;;;;;;;-145.18;100.00;46679.94;6273872;22;20065;-72
2023/01/30 04:40:54;;;;;;;30.83;7.10;;;;;;;-145.18;100.00;46679.94;6273818;22;20316;-72
2023/01/30 04:43:20;;;;;;;23.33;5.83;;;;;;;-145.18;100.00;46681.88;6273846;22;20732;-72
2023/01/30 04:45:47;;;;;;;23.10;5.63;;;;;;;-145.18;100.00;46676.03;6273814;22;20244;-72
2023/01/30 04:48:14;;;;;;;24.97;6.17;;;;;;;-145.18;100.00;46683.84;6273689;22;20228;-72
2023/01/30 04:50:41;;;;;;;24.17;5.13;;;;;;;-145.18;100.00;46687.75;6274098;22;20711;-72
2023/01/30 04:53:07;;;;;;;25.10;5.37;;;;;;;-145.18;100.00;46677.97;6245158;22;20224;-72
2023/01/30 04:55:32;;;;;;;16.07;5.00;;;;;;;-145.18;100.00;46685.78;6273477;22;20244;-72
2023/01/30 04:57:58;;;;;;;19.13;5.20;;;;;;;-145.18;100.00;46679.94;6219896;22;20049;-72
2023/01/30 05:00:23;;;;;;;18.60;5.07;;;;;;;-145.18;100.00;46681.88;6246546;22;20004;-72
2023/01/30 05:02:49;;;;;;;13.83;4.07;;;;;;;-145.18;100.00;46683.84;6272713;22;20105;-72
2023/01/30 05:05:14;;;;;;;14.23;3.43;;;;;;;-145.18;100.00;46691.66;6273559;22;20014;-72
2023/01/30 05:07:40;;;;;;;15.30;4.40;;;;;;;-145.18;100.00;46687.75;6272897;22;20083;-72
2023/01/30 05:10:06;;;;;;;11.47;2.77;;;;;;;-145.18;100.00;46695.56;6273368;22;20070;-71
2023/01/30 05:12:31;;;;;;;13.10;3.57;;;;;;;-145.18;100.00;46689.69;6273552;22;20015;-72
2023/01/30 05:14:56;;;;;;;8.57;1.97;;;;;;;-145.18;100.00;46707.28;6272637;22;20004;-72
2023/01/30 05:17:22;;;;;;;9.80;2.03;;;;;;;-145.18;100.00;46699.47;6272814;22;20133;-72
2023/01/30 05:19:47;;;;;;;8.03;2.03;;;;;;;-145.18;100.00;46709.22;6273579;22;20569;-72
2023/01/30 05:22:13;;;;;;;9.37;1.63;;;;;;;-145.18;100.00;46707.28;6273209;22;20039;-72
2023/01/30 05:24:38;;;;;;;12.77;2.80;;;;;;;-145.18;100.00;46717.03;6273740;22;20447;-72
2023/01/30 05:27:04;;;;;;;9.63;2.40;;;;;;;-145.18;100.00;46717.03;6272524;22;20008;-71
2023/01/30 05:29:29;;;;;;;10.87;2.30;;;;;;;-145.18;100.00;46715.09;6273365;22;20000;-71
2023/01/30 05:31:55;;;;;;;10.00;1.70;;;;;;;-145.18;100.00;46722.91;6273550;22;20083;-71
2023/01/30 05:34:20;;;;;;;17.03;2.33;;;;;;;-145.18;100.00;46720.94;6273104;22;20003;-71
2023/01/30 05:36:46;;;;;;;7.20;2.13;;;;;;;-145.18;100.00;46724.84;6272711;22;20008;-72
2023/01/30 05:39:11;;;;;;;16.67;2.43;;;;;;;-145.18;100.00;46722.91;6273379;22;20341;-71
2023/01/30 05:41:37;;;;;;;16.70;2.33;;;;;;;-145.18;100.00;46732.66;6273310;22;20092;-71
2023/01/30 05:44:02;;;;;;;10.30;1.87;;;;;;;-145.18;100.00;46722.91;6272746;22;20012;-71
2023/01/30 05:46:28;;;;;;;6.73;1.50;;;;;;;-145.18;100.00;46703.38;6273235;22;20011;-71
2023/01/30 05:48:53;;;;;;;9.80;1.93;;;;;;;-145.18;100.00;46666.25;6272629;22;20091;-71
2023/01/30 05:51:21;;;;;;;13.47;3.20;;;;;;;-145.18;100.00;46677.97;6272788;22;20424;-71
2023/01/30 05:53:47;;;;;;;11.97;1.83;;;;;;;-145.18;100.00;46660.41;6272943;22;20015;-71
2023/01/30 05:56:12;;;;;;;12.30;2.03;;;;;;;-145.18;100.00;46652.59;6273715;22;20306;-71
2023/01/30 05:58:38;;;;;;;21.33;2.50;;;;;;;-145.18;100.00;46642.81;6272975;22;20085;-71
2023/01/30 06:01:08;;;;;;;9.57;1.63;;;;;;;-145.18;100.00;46650.63;6273133;22;20501;-71
2023/01/30 06:03:34;;;;;;;9.83;2.00;;;;;;;-145.18;100.00;46656.50;6272895;22;20019;-71
2023/01/30 06:06:04;;;;;;;10.63;2.60;;;;;;;-145.18;100.00;46658.44;6272820;22;20562;-71
2023/01/30 06:08:30;;;;;;;11.83;2.13;;;;;;;-145.18;100.00;46660.41;6272890;22;20003;-71
2023/01/30 06:11:07;;;;;;;15.17;2.40;;;;;;;-145.18;100.00;46660.41;6273031;22;20237;-71
2023/01/30 06:13:33;;;;;;;20.60;1.97;;;;;;;-145.18;100.00;46656.50;6273399;22;20323;-71
2023/01/30 06:15:59;;;;;;;19.17;2.33;;;;;;;-145.18;100.00;46660.41;6273152;22;20264;-71
2023/01/30 06:18:24;;;;;;;17.33;3.00;;;;;;;-145.18;100.00;46658.44;6272812;22;20898;-71
2023/01/30 06:20:51;;;;;;;6.23;1.90;;;;;;;-145.18;100.00;46654.53;6272881;22;20012;-71
2023/01/30 06:23:18;;;;;;;15.37;1.87;;;;;;;-145.18;100.00;46654.53;6272623;22;20011;-71
2023/01/30 06:25:44;;;;;;;13.53;1.90;;;;;;;-145.18;100.00;46660.41;6272862;22;20744;-71
2023/01/30 06:28:10;;;;;;;16.90;2.33;;;;;;;-145.18;100.00;46654.53;6272048;22;20236;-71
2023/01/30 06:30:36;;;;;;;22.57;2.77;;;;;;;-145.18;100.00;46652.59;6273078;22;20225;-71
2023/01/30 06:33:01;;;;;;;10.50;2.27;;;;;;;-145.18;100.00;46660.41;6272366;22;20090;-71
2023/01/30 06:35:27;;;;;;;11.73;2.27;;;;;;;-145.18;100.00;46660.41;6273307;22;20042;-71
2023/01/30 06:37:52;;;;;;;27.20;3.37;;;;;;;-145.18;100.00;46660.41;6272659;22;20387;-71
2023/01/30 06:40:17;;;;;;;11.23;2.57;;;;;;;-145.18;100.00;46660.41;6272820;22;20041;-71
2023/01/30 06:42:47;;;;;;;23.70;3.43;;;;;;;-145.18;100.00;46660.41;6272754;22;20008;-71
2023/01/30 06:45:18;;;;;;;18.73;2.97;;;;;;;-145.18;100.00;46660.41;6273133;22;20004;-71
2023/01/30 06:47:48;;;;;;;14.67;3.30;;;;;;;-145.18;100.00;46660.41;6272552;22;20733;-72
2023/01/30 06:50:15;;;;;;;18.63;3.07;;;;;;;-145.18;100.00;46660.41;6273396;22;20232;-71
2023/01/30 06:52:45;;;;;;;18.03;3.13;;;;;;;-145.18;100.00;46660.41;6269851;22;20340;-72
2023/01/30 06:55:13;;;;;;;22.77;3.53;;;;;;;-145.18;100.00;46660.41;6271467;22;20311;-71
2023/01/30 06:57:38;;;;;;;17.53;2.57;;;;;;;-145.18;100.00;46660.41;6271783;22;20698;-71
2023/01/30 07:00:06;;;;;;;16.30;2.60;;;;;;;-145.18;100.00;46658.44;6272112;22;20229;-71
2023/01/30 07:02:34;;;;;;;20.43;2.80;;;;;;;-145.18;100.00;46660.41;6272123;22;20440;-72
2023/01/30 07:05:06;;;;;;;37.40;3.97;;;;;;;-145.18;100.00;46656.50;6272531;22;20910;-71
2023/01/30 07:07:32;;;;;;;17.37;3.03;;;;;;;-145.18;100.00;46660.41;6272330;22;20531;-71
2023/01/30 07:09:58;;;;;;;22.83;2.60;;;;;;;-145.18;100.00;46656.50;6272014;22;20232;-72
2023/01/30 07:12:24;;;;;;;22.83;3.00;;;;;;;-145.18;100.00;46656.50;6271802;22;20237;-71
2023/01/30 07:14:51;;;;;;;19.17;3.93;;;;;;;-145.18;100.00;46660.41;6272457;22;20035;-71
2023/01/30 07:17:17;;;;;;;28.87;3.83;;;;;;;-145.18;100.00;46660.41;6272841;22;20713;-71
2023/01/30 07:19:43;;;;;;;13.47;2.73;;;;;;;-145.18;100.00;46660.41;6272012;22;20232;-71
2023/01/30 07:22:09;;;;;;;12.57;1.90;;;;;;;-145.18;100.00;46648.69;6274539;22;20389;-71
2023/01/30 07:24:34;;;;;;;13.93;2.97;;;;;;;-145.18;100.00;46646.72;6274766;22;20015;-72
2023/01/30 07:27:00;;;;;;;19.10;2.57;;;;;;;-145.18;100.00;46660.41;6274533;22;20034;-71
2023/01/30 07:29:25;;;;;;;20.87;2.77;;;;;;;-145.18;100.00;46664.31;6274496;22;20012;-71
2023/01/30 07:31:50;;;;;;;23.97;3.13;;;;;;;-145.18;100.00;46687.75;6274758;22;20011;-71
2023/01/30 07:34:16;;;;;;;22.80;3.53;;;;;;;-145.18;100.00;46685.78;6274360;22;20019;-71
2023/01/30 07:36:42;;;;;;;21.80;3.13;;;;;;;-145.18;100.00;46695.56;6274811;22;20133;-72
2023/01/30 07:39:08;;;;;;;21.20;2.77;;;;;;;-145.18;100.00;46707.28;6269471;22;20007;-71
2023/01/30 07:41:34;;;;;;;18.80;2.73;;;;;;;-145.18;100.00;46709.22;6270097;22;20011;-71
2023/01/30 07:43:59;;;;;;;8.90;2.53;;;;;;;-145.18;100.00;46738.53;6273634;22;20248;-71
2023/01/30 07:46:25;;;;;;;27.17;3.63;;;;;;;-145.18;100.00;46738.53;6274414;22;20053;-71
2023/01/30 07:48:50;;;;;;;16.33;2.97;;;;;;;-145.18;100.00;46746.34;6273930;22;20000;-71
2023/01/30 07:51:15;;;;;;;20.73;2.37;;;;;;;-145.18;100.00;46744.38;6274305;22;20440;-72
2023/01/30 07:53:41;;;;;;;13.20;2.53;;;;;;;-145.18;100.00;46748.28;6274193;22;20027;-71
2023/01/30 07:56:07;;;;;;;27.50;2.93;;;;;;;-145.18;100.00;46746.34;6272510;22;20012;-71
2023/01/30 07:58:33;;;;;;;15.77;3.23;;;;;;;-145.18;100.00;46746.34;6273288;22;20456;-71
2023/01/30 08:00:58;;;;;;;16.97;3.70;;;;;;;-145.18;100.00;46744.38;6272201;22;20233;-71
2023/01/30 08:03:23;;;;;;;19.30;3.60;;;;;;;-145.18;100.00;46744.38;6273777;22;20035;-71
2023/01/30 08:05:49;;;;;;;21.73;2.77;;;;;;;-145.18;100.00;46754.16;6273467;22;20031;-71
2023/01/30 08:08:14;;;;;;;28.87;4.07;;;;;;;-145.18;100.00;46758.06;6274267;22;20003;-71
2023/01/30 08:10:40;;;;;;;18.17;3.17;;;;;;;-145.18;100.00;46765.88;6274177;22;20053;-71
2023/01/30 08:13:05;;;;;;;23.60;2.50;;;;;;;-145.18;100.00;46769.78;6246613;22;20072;-71
2023/01/30 08:15:32;;;;;;;13.10;2.73;;;;;;;-145.18;100.00;46758.06;6274138;22;20369;-71
2023/01/30 08:17:58;;;;;;;15.33;2.67;;;;;;;-145.18;100.00;46769.78;6272105;22;20011;-71
2023/01/30 08:20:25;;;;;;;14.47;2.63;;;;;;;-145.18;100.00;46775.66;6274441;22;20232;-71
2023/01/30 08:22:51;;;;;;;23.17;4.43;;;;;;;-145.18;100.00;46769.78;6272989;22;20023;-71
2023/01/30 08:25:16;;;;;;;20.27;2.67;;;;;;;-145.18;100.00;46781.50;6273908;22;20679;-71
2023/01/30 08:27:41;;;;;;;14.67;1.93;;;;;;;-145.18;100.00;46781.50;6273989;22;20012;-71
2023/01/30 08:30:08;;;;;;;17.30;2.43;;;;;;;-145.18;100.00;46775.66;6273709;22;20027;-71
2023/01/30 08:32:34;;;;;;;20.40;2.73;;;;;;;-145.18;100.00;46777.59;6273330;22;20419;-71
2023/01/30 08:34:59;;;;;;;15.20;2.07;;;;;;;-145.18;100.00;46783.47;6273595;22;20312;-71
2023/01/30 08:37:24;;;;;;;14.67;3.03;;;;;;;-145.18;100.00;46803.00;6273889;22;20372;-71
2023/01/30 08:39:50;;;;;;;12.00;2.60;;;;;;;-145.18;100.00;46808.84;6273445;22;20011;-71
2023/01/30 08:42:15;;;;;;;17.97;2.90;;;;;;;-145.18;100.00;46808.84;6274235;22;20015;-71
2023/01/30 08:44:40;;;;;;;18.23;1.97;;;;;;;-145.18;100.00;46814.72;6273325;22;20023;-71
2023/01/30 08:47:06;;;;;;;13.60;2.50;;;;;;;-145.18;100.00;46822.53;6246719;22;20018;-71
2023/01/30 08:49:31;;;;;;;15.67;2.27;;;;;;;-145.18;100.00;46845.97;6273713;22;20004;-71
2023/01/30 08:51:57;;;;;;;23.13;3.10;;;;;;;-145.18;100.00;46883.09;6273656;22;20074;-71
2023/01/30 08:54:22;;;;;;;15.73;2.53;;;;;;;-145.18;100.00;46859.63;6246499;22;20014;-71
2023/01/30 08:56:47;;;;;;;15.63;2.70;;;;;;;-145.18;100.00;46887.00;6273331;22;20159;-71
2023/01/30 08:59:13;;;;;;;24.87;3.23;;;;;;;-145.18;100.00;46844.00;6273747;22;20004;-71
2023/01/30 09:01:38;;;;;;;16.40;2.33;;;;;;;-145.18;100.00;46879.19;6273565;22;20381;-71
2023/01/30 09:04:04;;;;;;;12.97;2.87;;;;;;;-145.18;100.00;46883.09;6272500;22;20023;-71
2023/01/30 09:06:29;;;;;;;24.57;3.97;;;;;;;-145.18;100.00;46888.94;6273870;22;20007;-71
2023/01/30 09:08:54;;;;;;;14.33;2.33;;;;;;;-145.18;100.00;46894.81;6273098;22;20087;-71
2023/01/30 09:11:20;;;;;;;34.67;4.30;;;;;;;-145.18;100.00;46906.53;6273562;22;20007;-71
2023/01/30 09:13:45;;;;;;;17.20;2.50;;;;;;;-145.18;100.00;46931.91;6273083;22;20513;-71
2023/01/30 09:16:11;;;;;;;18.50;2.97;;;;;;;-145.18;100.00;46928.00;6273348;22;20003;-71
2023/01/30 09:18:42;;;;;;;19.50;2.63;;;;;;;-145.18;100.00;46900.66;6273132;22;20329;-71
2023/01/30 09:21:08;;;;;;;15.60;2.30;;;;;;;-145.18;100.00;46929.97;6273385;22;20217;-71
2023/01/30 09:23:34;;;;;;;10.87;2.33;;;;;;;-145.18;100.00;46947.53;6273304;22;20248;-71
2023/01/30 09:25:59;;;;;;;22.43;2.90;;;;;;;-145.18;100.00;46945.59;6273320;22;20312;-71
2023/01/30 09:28:25;;;;;;;19.87;3.13;;;;;;;-145.18;100.00;46914.34;6272971;22;20094;-71
2023/01/30 09:30:50;;;;;;;16.23;2.37;;;;;;;-145.18;100.00;46933.88;6273145;22;20026;-71
2023/01/30 09:33:19;;;;;;;14.53;2.40;;;;;;;-145.18;100.00;46926.06;6273182;22;20241;-71
2023/01/30 09:35:47;;;;;;;19.10;2.83;;;;;;;-145.18;100.00;46959.25;6273575;22;20032;-71
2023/01/30 09:38:12;;;;;;;18.10;2.77;;;;;;;-145.18;100.00;46935.81;6245820;22;20371;-71
2023/01/30 09:41:01;;;;;;;15.73;2.87;;;;;;;-145.18;100.00;46920.19;6273217;22;20312;-71
2023/01/30 09:43:38;;;;;;;25.03;2.73;;;;;;;-145.18;100.00;46939.72;6271420;22;20037;-71
2023/01/30 09:46:22;;;;;;;22.57;3.03;;;;;;;-145.18;100.00;46939.72;6273348;22;20284;-71
2023/01/30 09:49:15;;;;;;;22.57;2.63;;;;;;;-145.18;100.00;46929.97;6272457;22;20253;-72
2023/01/30 09:52:12;;;;;;;18.07;2.80;;;;;;;-145.18;100.00;46951.44;6272904;22;20229;-71
2023/01/30 09:54:41;;;;;;;22.50;2.27;;;;;;;-145.18;100.00;46935.81;6272960;22;20315;-71
2023/01/30 09:57:06;;;;;;;17.13;2.57;;;;;;;-145.18;100.00;46914.34;6272137;22;20228;-71
2023/01/30 09:59:57;;;;;;;23.93;2.50;;;;;;;-145.18;100.00;46926.06;6272752;22;20225;-71
2023/01/30 10:02:40;;;;;;;16.57;2.40;;;;;;;-145.18;100.00;46920.19;6272016;22;20011;-71
2023/01/30 10:05:06;;;;;;;14.80;3.10;;;;;;;-145.18;100.00;46898.72;6272337;22;20241;-71
2023/01/30 10:08:00;;;;;;;22.03;2.50;;;;;;;-145.18;100.00;46914.34;6272973;22;20235;-71
2023/01/30 10:10:48;;;;;;;13.83;2.33;;;;;;;-145.18;100.00;46914.34;6249464;22;20225;-73
2023/01/30 10:13:35;;;;;;;14.07;2.37;;;;;;;-145.18;100.00;46931.91;6272831;22;20233;-72
2023/01/30 10:16:24;;;;;;;15.03;2.40;;;;;;;-145.18;100.00;46933.88;6272775;22;20221;-72
2023/01/30 10:19:08;;;;;;;18.40;2.73;;;;;;;-145.18;100.00;46947.53;6272212;22;20217;-72
2023/01/30 10:21:49;;;;;;;10.27;2.00;;;;;;;-145.18;100.00;46914.34;6273145;22;20237;-72
2023/01/30 10:24:32;;;;;;;18.00;2.40;;;;;;;-145.18;100.00;46937.78;6272716;22;20736;-72
2023/01/30 10:26:57;;;;;;;13.80;2.00;;;;;;;-145.18;100.00;46912.38;6272850;22;20279;-72
2023/01/30 10:29:29;;;;;;;15.43;2.07;;;;;;;-145.18;100.00;46910.44;6272836;22;20229;-72
2023/01/30 10:32:06;;;;;;;13.47;3.47;;;;;;;-145.18;100.00;46931.91;6273084;22;20012;-72
2023/01/30 10:34:39;;;;;;;20.23;2.43;;;;;;;-145.18;100.00;46937.78;6272772;22;20224;-72
2023/01/30 10:37:10;;;;;;;19.67;2.93;;;;;;;-145.18;100.00;46931.91;6273005;22;20228;-72
2023/01/30 10:39:49;;;;;;;12.53;2.60;;;;;;;-145.18;100.00;46937.78;6272646;22;20303;-72
2023/01/30 10:42:21;;;;;;;11.27;2.13;;;;;;;-145.18;100.00;46945.59;6272417;22;20232;-72
2023/01/30 10:44:47;;;;;;;19.93;3.10;;;;;;;-145.18;100.00;46924.09;6272161;22;20252;-72
2023/01/30 10:47:34;;;;;;;24.73;3.23;;;;;;;-145.18;100.00;46910.44;6272985;22;20233;-72
2023/01/30 10:50:14;;;;;;;21.93;2.87;;;;;;;-145.18;100.00;46945.59;6272630;22;19999;-73
2023/01/30 10:52:48;;;;;;;16.07;2.57;;;;;;;-145.18;100.00;46974.91;6272835;22;20304;-72
2023/01/30 10:55:33;;;;;;;20.33;2.17;;;;;;;-145.18;100.00;46969.03;6273043;22;20220;-72
2023/01/30 10:58:10;;;;;;;13.40;2.60;;;;;;;-145.18;100.00;46959.25;6274879;22;20839;-72
2023/01/30 11:00:44;;;;;;;22.93;3.50;;;;;;;-145.18;100.00;46976.84;6274866;22;20224;-72
2023/01/30 11:03:23;;;;;;;23.97;3.30;;;;;;;-145.18;100.00;46996.38;6274180;22;20326;-72
2023/01/30 11:05:49;;;;;;;25.93;3.63;;;;;;;-145.18;100.00;46986.63;6274605;22;20820;-73
2023/01/30 11:08:27;;;;;;;15.73;2.80;;;;;;;-145.18;100.00;46992.47;6274797;22;20221;-73
2023/01/30 11:10:54;;;;;;;21.03;3.43;;;;;;;-145.18;100.00;46984.66;6247167;22;19996;-73
2023/01/30 11:13:25;;;;;;;21.43;3.83;;;;;;;-145.18;100.00;46957.31;6274513;22;20304;-73
2023/01/30 11:15:52;;;;;;;15.73;2.53;;;;;;;-145.18;100.00;46965.13;6274199;22;20241;-73
2023/01/30 11:18:20;;;;;;;14.53;3.20;;;;;;;-145.18;100.00;46967.09;6274560;22;20245;-72
2023/01/30 11:21:03;;;;;;;22.27;3.53;;;;;;;-145.18;100.00;46963.19;6274405;22;20228;-73
2023/01/30 11:23:34;;;;;;;20.50;2.70;;;;;;;-145.18;100.00;46961.22;6273560;22;20248;-73